Campbell Foss — WDC7754 — position and weather

sailwx.info

Track history (hours):
 
Tides and Currents Weather Stations Pressure Air Temp Water Temp Dewpoint Dewpoint Depression Visibility Wind Speed Wind Dir Waves Ship Positions

Campbell Foss

Owner: Foss Maritime Co., Seattle, WA. More information available from US FCC via Universal Licensing System and Coast Guard Vessel Documentation Center.

Last reported at 2015-Mar-04 02:25 UTC. Time now 2015-Mar-04 02:51 UTC.
Position N 33°46' W 118°15'.

Length 23 m; draft 16 m.

Type: Tug. MMSI: 367076360.

Date/timePositionNaut miles runAvg speedWind from/ knotsBaromVisibWave heightAir tempDewpointWater temp
2015-Mar-04 02:25N 33°46' W 118°15'1 0.4
2015-Mar-04 00:03N 33°45' W 118°16'3 5.3
2015-Mar-03 23:32N 33°46' W 118°13'0 0.0
2015-Mar-03 22:33N 33°46' W 118°13'0 0.1
2015-Mar-03 21:33N 33°46' W 118°13'0 0.0
2015-Mar-03 20:31N 33°46' W 118°13'1 0.7
2015-Mar-03 19:33N 33°46' W 118°13'1 0.7
2015-Mar-03 18:34N 33°46' W 118°14'2 1.7
2015-Mar-03 17:18N 33°45' W 118°16'3 1.2
2015-Mar-03 14:31N 33°44' W 118°12'1 1.4
2015-Mar-03 13:31N 33°45' W 118°13'2 2.1
2015-Mar-03 12:32N 33°46' W 118°16'2 2.4
2015-Mar-03 11:33N 33°45' W 118°13'1 0.7
2015-Mar-03 10:31N 33°46' W 118°13'0 0.0
2015-Mar-03 09:34N 33°46' W 118°13'0 0.0
2015-Mar-03 08:34N 33°46' W 118°13'0 0.0
2015-Mar-03 05:32N 33°46' W 118°13'2 0.5
2015-Mar-03 01:21N 33°44' W 118°12'2 1.9
2015-Mar-03 00:32N 33°45' W 118°13'0 0.0
2015-Mar-02 23:27N 33°45' W 118°13'0 0.0
2015-Mar-02 22:33N 33°45' W 118°13'2 1.7
2015-Mar-02 21:21N 33°44' W 118°11'0 0.3
2015-Mar-02 20:34N 33°44' W 118°11'2 2.2
2015-Mar-02 19:29N 33°46' W 118°13'2 0.5
2015-Mar-02 14:34N 33°43' W 118°14'2 2.3
2015-Mar-02 13:33N 33°44' W 118°11'2 2.2
2015-Mar-02 12:34N 33°46' W 118°13'0 0.0
2015-Mar-02 11:34N 33°46' W 118°13'0 0.0
2015-Mar-02 10:33N 33°46' W 118°13'0 0.0
2015-Mar-02 09:34N 33°46' W 118°13'0 0.0
2015-Mar-02 08:34N 33°46' W 118°13'0 0.0
2015-Mar-02 07:33N 33°46' W 118°13'2 1.0
2015-Mar-02 05:21N 33°45' W 118°16'1 0.8
2015-Mar-02 04:32N 33°46' W 118°16'2 1.1
2015-Mar-02 02:21N 33°45' W 118°13'1 1.6
2015-Mar-02 01:33N 33°46' W 118°13'1 0.3
2015-Mar-01 23:33N 33°46' W 118°13'0 0.0
2015-Mar-01 22:33N 33°46' W 118°13'0 0.0
2015-Mar-01 21:34N 33°46' W 118°13'1 1.0
2015-Mar-01 20:34N 33°45' W 118°12'1 1.0
2015-Mar-01 19:33N 33°46' W 118°13'0 0.0
2015-Mar-01 18:33N 33°46' W 118°13'0 0.0
2015-Mar-01 17:33N 33°46' W 118°13'0 0.0
2015-Mar-01 15:33N 33°46' W 118°13'0 0.0
2015-Mar-01 14:30N 33°46' W 118°13'1 0.6
2015-Mar-01 13:20N 33°46' W 118°13'0 0.1
2015-Mar-01 12:33N 33°46' W 118°13'3 1.3
2015-Mar-01 10:32N 33°45' W 118°16'0 0.1
2015-Mar-01 08:13N 33°46' W 118°16'2 2.4
2015-Mar-01 07:34N 33°46' W 118°14'1 0.3
2015-Mar-01 04:33N 33°46' W 118°13'3 2.6
2015-Mar-01 03:32N 33°44' W 118°10'3 2.9
2015-Mar-01 02:33N 33°46' W 118°13'0 0.0
2015-Mar-01 01:33N 33°46' W 118°13'0 0.4
2015-Mar-01 00:33N 33°46' W 118°13'1 1.2
2015-Feb-28 23:34N 33°46' W 118°15'3 1.2
2015-Feb-28 21:19N 33°44' W 118°12'2 2.0
2015-Feb-28 20:34N 33°45' W 118°13'0 0.2
2015-Feb-28 19:33N 33°46' W 118°13'0 0.0
2015-Feb-28 18:33N 33°46' W 118°13'2 0.5
2015-Feb-28 15:28N 33°45' W 118°12'0 0.0
2015-Feb-28 13:33N 33°45' W 118°12'3 2.7
2015-Feb-28 12:29N 33°44' W 118°08'0 0.0
2015-Feb-28 11:33N 33°44' W 118°08'6 3.1
2015-Feb-28 09:33N 33°46' W 118°16'3 2.5
2015-Feb-28 08:22N 33°44' W 118°13'1 1.7
2015-Feb-28 07:34N 33°46' W 118°13'0 0.1
2015-Feb-28 06:34N 33°46' W 118°13'3 2.5
2015-Feb-28 05:32N 33°45' W 118°16'0 0.1
2015-Feb-28 03:11N 33°45' W 118°16'3 0.4
2015-Feb-27 20:33N 33°46' W 118°13'0 0.0
2015-Feb-27 19:33N 33°46' W 118°13'0 0.0
2015-Feb-27 18:31N 33°46' W 118°13'0 0.0
2015-Feb-27 17:33N 33°46' W 118°13'0 0.0
2015-Feb-27 16:33N 33°46' W 118°13'1 0.9
2015-Feb-27 15:30N 33°45' W 118°12'3 2.7
2015-Feb-27 14:30N 33°44' W 118°09'2 2.3
2015-Feb-27 13:33N 33°44' W 118°12'0 0.1
2015-Feb-27 11:33N 33°44' W 118°12'2 1.6
2015-Feb-27 10:33N 33°46' W 118°13'0 0.0
2015-Feb-27 09:33N 33°46' W 118°13'0 0.0
2015-Feb-27 08:33N 33°46' W 118°13'0 0.0
2015-Feb-27 07:33N 33°46' W 118°13'0 0.0
2015-Feb-27 06:33N 33°46' W 118°13'0 0.0
2015-Feb-27 05:33N 33°46' W 118°13'2 1.5
2015-Feb-27 04:18N 33°44' W 118°12'1 2.0
2015-Feb-27 03:33N 33°45' W 118°13'0 0.2
2015-Feb-27 02:33N 33°45' W 118°13'0 0.0
2015-Feb-27 01:26N 33°45' W 118°13'2 2.6
2015-Feb-27 00:33N 33°44' W 118°15'2 1.1
2015-Feb-26 23:08N 33°44' W 118°13'3 4.1
2015-Feb-26 22:31N 33°46' W 118°13'0 0.0
2015-Feb-26 21:33N 33°46' W 118°13'1 0.6
2015-Feb-26 20:33N 33°46' W 118°13'2 2.2
2015-Feb-26 19:32N 33°44' W 118°12'3 2.4
2015-Feb-26 18:20N 33°41' W 118°11'5 5.6
2015-Feb-26 17:28N 33°46' W 118°13'0 0.0
2015-Feb-26 16:33N 33°46' W 118°13'1 0.7
2015-Feb-26 15:31N 33°46' W 118°14'2 1.0
2015-Feb-26 13:33N 33°45' W 118°12'0 0.1
2015-Feb-26 12:33N 33°45' W 118°12'2 2.1
2015-Feb-26 11:33N 33°46' W 118°14'1 1.3
2015-Feb-26 10:33N 33°46' W 118°13'0 0.0
2015-Feb-26 09:33N 33°46' W 118°13'0 0.1
2015-Feb-26 08:33N 33°46' W 118°13'0 0.0
2015-Feb-26 07:33N 33°46' W 118°13'0 0.0
2015-Feb-26 06:33N 33°46' W 118°13'0 0.0
2015-Feb-26 05:33N 33°46' W 118°13'0 0.0
2015-Feb-26 04:33N 33°46' W 118°13'1 0.7
2015-Feb-26 03:33N 33°46' W 118°13'0 0.0
2015-Feb-26 01:33N 33°46' W 118°13'1 0.8
2015-Feb-26 00:33N 33°46' W 118°14'0 0.0
2015-Feb-25 23:33N 33°46' W 118°14'0 0.0
2015-Feb-25 22:33N 33°46' W 118°14'1 1.1
2015-Feb-25 21:33N 33°46' W 118°13'0 0.0
2015-Feb-25 20:33N 33°46' W 118°13'2 2.4
2015-Feb-25 19:33N 33°44' W 118°13'14 6.4
2015-Feb-25 17:25N 33°52' W 118°27'3 3.0
2015-Feb-25 16:30N 33°54' W 118°27'1 1.2
2015-Feb-25 15:32N 33°53' W 118°27'0 0.1
2015-Feb-25 14:33N 33°53' W 118°27'14 7.1
2015-Feb-25 12:32N 33°42' W 118°17'5 5.6
2015-Feb-25 11:33N 33°46' W 118°13'1 0.0
2015-Feb-24 21:27N 33°46' W 118°13'0 0.0
2015-Feb-24 20:33N 33°46' W 118°13'1 1.3
2015-Feb-24 19:33N 33°45' W 118°12'1 0.9
2015-Feb-24 18:31N 33°46' W 118°13'1 1.0
2015-Feb-24 17:33N 33°46' W 118°14'1 1.1
2015-Feb-24 16:25N 33°46' W 118°16'2 2.4
2015-Feb-24 15:29N 33°45' W 118°13'0 0.0
2015-Feb-24 14:33N 33°45' W 118°13'1 0.3
2015-Feb-24 12:33N 33°45' W 118°13'1 0.2
2015-Feb-24 04:17N 33°46' W 118°13'2 3.2
2015-Feb-24 03:32N 33°44' W 118°11'1 0.7
2015-Feb-24 01:27N 33°45' W 118°13'2 0.3
2015-Feb-23 19:19N 33°46' W 118°13'1 0.3
2015-Feb-23 17:12N 33°46' W 118°13'0 0.0
2015-Feb-23 16:33N 33°46' W 118°13'0 0.0
2015-Feb-23 15:31N 33°46' W 118°13'1 0.9
2015-Feb-23 14:33N 33°46' W 118°14'1 1.2
2015-Feb-23 13:33N 33°45' W 118°13'0 0.3
2015-Feb-23 12:33N 33°46' W 118°13'1 0.7
2015-Feb-23 11:28N 33°46' W 118°13'0 0.0
2015-Feb-23 10:31N 33°46' W 118°13'0 0.0
2015-Feb-23 09:29N 33°46' W 118°13'3 2.3
2015-Feb-23 08:21N 33°45' W 118°16'0 0.5
2015-Feb-23 07:32N 33°46' W 118°16'0 0.0
2015-Feb-23 04:28N 33°46' W 118°16'0 0.1
2015-Feb-23 03:19N 33°46' W 118°16'1 0.7
2015-Feb-23 02:33N 33°45' W 118°16'1 1.5
2015-Feb-23 01:33N 33°46' W 118°14'1 1.4
2015-Feb-23 00:33N 33°46' W 118°13'0 0.0
2015-Feb-22 23:27N 33°46' W 118°13'0 0.0
2015-Feb-22 22:27N 33°46' W 118°13'0 0.0
2015-Feb-22 21:32N 33°46' W 118°13'1 0.6
2015-Feb-22 20:33N 33°46' W 118°13'3 2.4
2015-Feb-22 19:30N 33°46' W 118°16'0 0.0
2015-Feb-22 17:15N 33°46' W 118°16'1 1.0
2015-Feb-22 16:33N 33°46' W 118°16'1 0.9
2015-Feb-22 15:26N 33°45' W 118°16'3 0.5
2015-Feb-22 10:31N 33°45' W 118°13'2 1.6
2015-Feb-22 09:33N 33°46' W 118°13'0 0.0
2015-Feb-22 08:33N 33°46' W 118°13'0 0.0
2015-Feb-22 07:33N 33°46' W 118°13'0 0.0
2015-Feb-22 06:33N 33°46' W 118°13'0 0.0
2015-Feb-22 05:33N 33°46' W 118°13'0 0.0
2015-Feb-22 04:33N 33°46' W 118°13'0 0.0
2015-Feb-22 03:33N 33°46' W 118°13'0 0.0
2015-Feb-22 02:33N 33°46' W 118°13'  
Track history (hours):
 
Tides and Currents Weather Stations Pressure Air Temp Water Temp Dewpoint Dewpoint Depression Visibility Wind Speed Wind Dir Waves Ship Positions

Campbell Foss

Owner: Foss Maritime Co., Seattle, WA. More information available from US FCC via Universal Licensing System and Coast Guard Vessel Documentation Center.

Last reported at 2015-Mar-04 02:25 UTC. Time now 2015-Mar-04 02:51 UTC.
Position N 33°46' W 118°15'.

Length 23 m; draft 16 m.

Type: Tug. MMSI: 367076360.

Date/timePositionNaut miles runAvg speedWind from/ knotsBaromVisibWave heightAir tempDewpointWater temp
2015-Mar-04 02:25N 33°46' W 118°15'1 0.4
2015-Mar-04 00:03N 33°45' W 118°16'3 5.3
2015-Mar-03 23:32N 33°46' W 118°13'0 0.0
2015-Mar-03 22:33N 33°46' W 118°13'0 0.1
2015-Mar-03 21:33N 33°46' W 118°13'0 0.0
2015-Mar-03 20:31N 33°46' W 118°13'1 0.7
2015-Mar-03 19:33N 33°46' W 118°13'1 0.7
2015-Mar-03 18:34N 33°46' W 118°14'2 1.7
2015-Mar-03 17:18N 33°45' W 118°16'3 1.2
2015-Mar-03 14:31N 33°44' W 118°12'1 1.4
2015-Mar-03 13:31N 33°45' W 118°13'2 2.1
2015-Mar-03 12:32N 33°46' W 118°16'2 2.4
2015-Mar-03 11:33N 33°45' W 118°13'1 0.7
2015-Mar-03 10:31N 33°46' W 118°13'0 0.0
2015-Mar-03 09:34N 33°46' W 118°13'0 0.0
2015-Mar-03 08:34N 33°46' W 118°13'0 0.0
2015-Mar-03 05:32N 33°46' W 118°13'2 0.5
2015-Mar-03 01:21N 33°44' W 118°12'2 1.9
2015-Mar-03 00:32N 33°45' W 118°13'0 0.0
2015-Mar-02 23:27N 33°45' W 118°13'0 0.0
2015-Mar-02 22:33N 33°45' W 118°13'2 1.7
2015-Mar-02 21:21N 33°44' W 118°11'0 0.3
2015-Mar-02 20:34N 33°44' W 118°11'2 2.2
2015-Mar-02 19:29N 33°46' W 118°13'2 0.5
2015-Mar-02 14:34N 33°43' W 118°14'2 2.3
2015-Mar-02 13:33N 33°44' W 118°11'2 2.2
2015-Mar-02 12:34N 33°46' W 118°13'0 0.0
2015-Mar-02 11:34N 33°46' W 118°13'0 0.0
2015-Mar-02 10:33N 33°46' W 118°13'0 0.0
2015-Mar-02 09:34N 33°46' W 118°13'0 0.0
2015-Mar-02 08:34N 33°46' W 118°13'0 0.0
2015-Mar-02 07:33N 33°46' W 118°13'2 1.0
2015-Mar-02 05:21N 33°45' W 118°16'1 0.8
2015-Mar-02 04:32N 33°46' W 118°16'2 1.1
2015-Mar-02 02:21N 33°45' W 118°13'1 1.6
2015-Mar-02 01:33N 33°46' W 118°13'1 0.3
2015-Mar-01 23:33N 33°46' W 118°13'0 0.0
2015-Mar-01 22:33N 33°46' W 118°13'0 0.0
2015-Mar-01 21:34N 33°46' W 118°13'1 1.0
2015-Mar-01 20:34N 33°45' W 118°12'1 1.0
2015-Mar-01 19:33N 33°46' W 118°13'0 0.0
2015-Mar-01 18:33N 33°46' W 118°13'0 0.0
2015-Mar-01 17:33N 33°46' W 118°13'0 0.0
2015-Mar-01 15:33N 33°46' W 118°13'0 0.0
2015-Mar-01 14:30N 33°46' W 118°13'1 0.6
2015-Mar-01 13:20N 33°46' W 118°13'0 0.1
2015-Mar-01 12:33N 33°46' W 118°13'3 1.3
2015-Mar-01 10:32N 33°45' W 118°16'0 0.1
2015-Mar-01 08:13N 33°46' W 118°16'2 2.4
2015-Mar-01 07:34N 33°46' W 118°14'1 0.3
2015-Mar-01 04:33N 33°46' W 118°13'3 2.6
2015-Mar-01 03:32N 33°44' W 118°10'3 2.9
2015-Mar-01 02:33N 33°46' W 118°13'0 0.0
2015-Mar-01 01:33N 33°46' W 118°13'0 0.4
2015-Mar-01 00:33N 33°46' W 118°13'1 1.2
2015-Feb-28 23:34N 33°46' W 118°15'3 1.2
2015-Feb-28 21:19N 33°44' W 118°12'2 2.0
2015-Feb-28 20:34N 33°45' W 118°13'0 0.2
2015-Feb-28 19:33N 33°46' W 118°13'0 0.0
2015-Feb-28 18:33N 33°46' W 118°13'2 0.5
2015-Feb-28 15:28N 33°45' W 118°12'0 0.0
2015-Feb-28 13:33N 33°45' W 118°12'3 2.7
2015-Feb-28 12:29N 33°44' W 118°08'0 0.0
2015-Feb-28 11:33N 33°44' W 118°08'6 3.1
2015-Feb-28 09:33N 33°46' W 118°16'3 2.5
2015-Feb-28 08:22N 33°44' W 118°13'1 1.7
2015-Feb-28 07:34N 33°46' W 118°13'0 0.1
2015-Feb-28 06:34N 33°46' W 118°13'3 2.5
2015-Feb-28 05:32N 33°45' W 118°16'0 0.1
2015-Feb-28 03:11N 33°45' W 118°16'3 0.4
2015-Feb-27 20:33N 33°46' W 118°13'0 0.0
2015-Feb-27 19:33N 33°46' W 118°13'0 0.0
2015-Feb-27 18:31N 33°46' W 118°13'0 0.0
2015-Feb-27 17:33N 33°46' W 118°13'0 0.0
2015-Feb-27 16:33N 33°46' W 118°13'1 0.9
2015-Feb-27 15:30N 33°45' W 118°12'3 2.7
2015-Feb-27 14:30N 33°44' W 118°09'2 2.3
2015-Feb-27 13:33N 33°44' W 118°12'0 0.1
2015-Feb-27 11:33N 33°44' W 118°12'2 1.6
2015-Feb-27 10:33N 33°46' W 118°13'0 0.0
2015-Feb-27 09:33N 33°46' W 118°13'0 0.0
2015-Feb-27 08:33N 33°46' W 118°13'0 0.0
2015-Feb-27 07:33N 33°46' W 118°13'0 0.0
2015-Feb-27 06:33N 33°46' W 118°13'0 0.0
2015-Feb-27 05:33N 33°46' W 118°13'2 1.5
2015-Feb-27 04:18N 33°44' W 118°12'1 2.0
2015-Feb-27 03:33N 33°45' W 118°13'0 0.2
2015-Feb-27 02:33N 33°45' W 118°13'0 0.0
2015-Feb-27 01:26N 33°45' W 118°13'2 2.6
2015-Feb-27 00:33N 33°44' W 118°15'2 1.1
2015-Feb-26 23:08N 33°44' W 118°13'3 4.1
2015-Feb-26 22:31N 33°46' W 118°13'0 0.0
2015-Feb-26 21:33N 33°46' W 118°13'1 0.6
2015-Feb-26 20:33N 33°46' W 118°13'2 2.2
2015-Feb-26 19:32N 33°44' W 118°12'3 2.4
2015-Feb-26 18:20N 33°41' W 118°11'5 5.6
2015-Feb-26 17:28N 33°46' W 118°13'0 0.0
2015-Feb-26 16:33N 33°46' W 118°13'1 0.7
2015-Feb-26 15:31N 33°46' W 118°14'2 1.0
2015-Feb-26 13:33N 33°45' W 118°12'0 0.1
2015-Feb-26 12:33N 33°45' W 118°12'2 2.1
2015-Feb-26 11:33N 33°46' W 118°14'1 1.3
2015-Feb-26 10:33N 33°46' W 118°13'0 0.0
2015-Feb-26 09:33N 33°46' W 118°13'0 0.1
2015-Feb-26 08:33N 33°46' W 118°13'0 0.0
2015-Feb-26 07:33N 33°46' W 118°13'0 0.0
2015-Feb-26 06:33N 33°46' W 118°13'0 0.0
2015-Feb-26 05:33N 33°46' W 118°13'0 0.0
2015-Feb-26 04:33N 33°46' W 118°13'1 0.7
2015-Feb-26 03:33N 33°46' W 118°13'0 0.0
2015-Feb-26 01:33N 33°46' W 118°13'1 0.8
2015-Feb-26 00:33N 33°46' W 118°14'0 0.0
2015-Feb-25 23:33N 33°46' W 118°14'0 0.0
2015-Feb-25 22:33N 33°46' W 118°14'1 1.1
2015-Feb-25 21:33N 33°46' W 118°13'0 0.0
2015-Feb-25 20:33N 33°46' W 118°13'2 2.4
2015-Feb-25 19:33N 33°44' W 118°13'14 6.4
2015-Feb-25 17:25N 33°52' W 118°27'3 3.0
2015-Feb-25 16:30N 33°54' W 118°27'1 1.2
2015-Feb-25 15:32N 33°53' W 118°27'0 0.1
2015-Feb-25 14:33N 33°53' W 118°27'14 7.1
2015-Feb-25 12:32N 33°42' W 118°17'5 5.6
2015-Feb-25 11:33N 33°46' W 118°13'1 0.0
2015-Feb-24 21:27N 33°46' W 118°13'0 0.0
2015-Feb-24 20:33N 33°46' W 118°13'1 1.3
2015-Feb-24 19:33N 33°45' W 118°12'1 0.9
2015-Feb-24 18:31N 33°46' W 118°13'1 1.0
2015-Feb-24 17:33N 33°46' W 118°14'1 1.1
2015-Feb-24 16:25N 33°46' W 118°16'2 2.4
2015-Feb-24 15:29N 33°45' W 118°13'0 0.0
2015-Feb-24 14:33N 33°45' W 118°13'1 0.3
2015-Feb-24 12:33N 33°45' W 118°13'1 0.2
2015-Feb-24 04:17N 33°46' W 118°13'2 3.2
2015-Feb-24 03:32N 33°44' W 118°11'1 0.7
2015-Feb-24 01:27N 33°45' W 118°13'2 0.3
2015-Feb-23 19:19N 33°46' W 118°13'1 0.3
2015-Feb-23 17:12N 33°46' W 118°13'0 0.0
2015-Feb-23 16:33N 33°46' W 118°13'0 0.0
2015-Feb-23 15:31N 33°46' W 118°13'1 0.9
2015-Feb-23 14:33N 33°46' W 118°14'1 1.2
2015-Feb-23 13:33N 33°45' W 118°13'0 0.3
2015-Feb-23 12:33N 33°46' W 118°13'1 0.7
2015-Feb-23 11:28N 33°46' W 118°13'0 0.0
2015-Feb-23 10:31N 33°46' W 118°13'0 0.0
2015-Feb-23 09:29N 33°46' W 118°13'3 2.3
2015-Feb-23 08:21N 33°45' W 118°16'0 0.5
2015-Feb-23 07:32N 33°46' W 118°16'0 0.0
2015-Feb-23 04:28N 33°46' W 118°16'0 0.1
2015-Feb-23 03:19N 33°46' W 118°16'1 0.7
2015-Feb-23 02:33N 33°45' W 118°16'1 1.5
2015-Feb-23 01:33N 33°46' W 118°14'1 1.4
2015-Feb-23 00:33N 33°46' W 118°13'0 0.0
2015-Feb-22 23:27N 33°46' W 118°13'0 0.0
2015-Feb-22 22:27N 33°46' W 118°13'0 0.0
2015-Feb-22 21:32N 33°46' W 118°13'1 0.6
2015-Feb-22 20:33N 33°46' W 118°13'3 2.4
2015-Feb-22 19:30N 33°46' W 118°16'0 0.0
2015-Feb-22 17:15N 33°46' W 118°16'1 1.0
2015-Feb-22 16:33N 33°46' W 118°16'1 0.9
2015-Feb-22 15:26N 33°45' W 118°16'3 0.5
2015-Feb-22 10:31N 33°45' W 118°13'2 1.6
2015-Feb-22 09:33N 33°46' W 118°13'0 0.0
2015-Feb-22 08:33N 33°46' W 118°13'0 0.0
2015-Feb-22 07:33N 33°46' W 118°13'0 0.0
2015-Feb-22 06:33N 33°46' W 118°13'0 0.0
2015-Feb-22 05:33N 33°46' W 118°13'0 0.0
2015-Feb-22 04:33N 33°46' W 118°13'0 0.0
2015-Feb-22 03:33N 33°46' W 118°13'0 0.0
2015-Feb-22 02:33N 33°46' W 118°13'  

Dump ship's entire track history